Time;durP1;ratioP1;P1;durP2;ratioP2;P2;SDS_P1;SDS_P2;PMS_P1;PMS_P2;Temp;Humidity;BMP_temperature;BMP_pressure;BME280_temperature;BME280_humidity;BME280_pressure;Samples;Min_cycle;Max_cycle;Signal;HPM_P1;HPM_P2
2021/08/07 00:02:26;;;;;;;1.40;1.00;;;17.10;99.90;;;;;;6246006;23;20493;-77
2021/08/07 00:04:53;;;;;;;3.93;1.30;;;17.00;99.90;;;;;;6246165;23;20176;-77
2021/08/07 00:07:20;;;;;;;6.57;1.33;;;17.00;99.90;;;;;;6245821;23;20176;-77
2021/08/07 00:09:48;;;;;;;3.03;1.13;;;17.00;99.90;;;;;;6246133;23;20282;-77
2021/08/07 00:12:16;;;;;;;2.30;1.30;;;16.90;99.90;;;;;;6246350;23;20183;-76
2021/08/07 00:14:43;;;;;;;2.63;1.40;;;16.90;99.90;;;;;;6245920;23;20498;-77
2021/08/07 00:17:09;;;;;;;2.50;1.03;;;16.80;99.90;;;;;;6245998;23;20182;-77
2021/08/07 00:19:36;;;;;;;6.40;1.23;;;16.90;99.90;;;;;;6246335;23;20195;-77
2021/08/07 00:22:03;;;;;;;1.70;1.07;;;16.90;99.90;;;;;;6246203;23;20176;-77
2021/08/07 00:24:31;;;;;;;2.77;1.07;;;16.90;99.90;;;;;;6245671;23;20179;-77
2021/08/07 00:26:59;;;;;;;2.90;1.37;;;16.90;99.90;;;;;;6246068;23;20579;-77
2021/08/07 00:29:25;;;;;;;3.20;1.30;;;16.90;99.90;;;;;;6246270;23;20199;-77
2021/08/07 00:31:52;;;;;;;1.73;1.20;;;17.00;99.90;;;;;;6246262;23;20183;-77
2021/08/07 00:34:19;;;;;;;2.97;1.50;;;17.00;99.90;;;;;;6245863;23;20202;-77
2021/08/07 00:36:46;;;;;;;3.40;1.20;;;17.10;99.90;;;;;;6245801;23;20508;-77
2021/08/07 00:39:12;;;;;;;2.67;1.37;;;17.10;99.90;;;;;;6245033;23;20195;-77
2021/08/07 00:41:39;;;;;;;2.20;1.20;;;17.10;99.90;;;;;;6246130;23;20175;-77
2021/08/07 00:44:07;;;;;;;1.67;1.10;;;17.10;99.90;;;;;;6245748;23;20213;-77
2021/08/07 00:46:34;;;;;;;3.43;0.93;;;17.10;99.90;;;;;;6246293;23;20176;-77
2021/08/07 00:49:01;;;;;;;2.97;1.10;;;17.10;99.90;;;;;;6245555;23;20195;-77
2021/08/07 00:51:28;;;;;;;3.43;1.53;;;17.10;99.90;;;;;;6246630;23;20175;-77
2021/08/07 00:53:55;;;;;;;2.27;1.13;;;17.10;99.90;;;;;;6245712;23;20179;-77
2021/08/07 00:56:22;;;;;;;2.87;1.13;;;17.20;99.90;;;;;;6245680;23;20176;-77
2021/08/07 00:58:49;;;;;;;2.00;1.03;;;17.20;99.90;;;;;;6245358;23;20682;-77
2021/08/07 01:01:17;;;;;;;2.40;1.30;;;17.10;99.90;;;;;;6245208;23;20635;-77
2021/08/07 01:03:47;;;;;;;5.13;1.30;;;17.10;99.90;;;;;;6245420;23;20207;-77
2021/08/07 01:06:27;;;;;;;2.83;0.90;;;17.10;99.90;;;;;;6245399;23;20258;-77
2021/08/07 01:09:06;;;;;;;2.87;1.20;;;17.10;99.90;;;;;;6245316;23;20195;-77
2021/08/07 01:11:42;;;;;;;2.27;1.17;;;17.00;99.90;;;;;;6245720;23;20176;-76
2021/08/07 01:14:10;;;;;;;2.93;1.10;;;17.00;99.90;;;;;;6245756;23;20179;-77
2021/08/07 01:16:42;;;;;;;2.70;1.10;;;17.10;99.90;;;;;;6245639;23;20199;-77
2021/08/07 01:19:19;;;;;;;1.87;0.93;;;17.20;99.90;;;;;;6245777;23;20203;-77
2021/08/07 01:21:51;;;;;;;2.10;1.10;;;17.20;99.90;;;;;;6246116;23;20199;-77
2021/08/07 01:24:23;;;;;;;2.17;1.13;;;17.10;99.90;;;;;;6245837;23;20258;-77
2021/08/07 01:26:55;;;;;;;2.93;1.00;;;17.10;99.90;;;;;;6245918;23;20180;-77
2021/08/07 01:29:26;;;;;;;1.80;0.80;;;17.10;99.90;;;;;;6245459;23;20274;-77
2021/08/07 01:31:53;;;;;;;2.17;1.10;;;17.20;99.90;;;;;;6245846;23;20179;-77
2021/08/07 01:34:21;;;;;;;3.43;1.07;;;17.10;99.90;;;;;;6245329;23;20189;-77
2021/08/07 01:36:48;;;;;;;2.50;1.07;;;17.20;99.90;;;;;;6245040;23;20506;-77
2021/08/07 01:39:15;;;;;;;4.53;1.00;;;17.20;99.90;;;;;;6244940;23;20196;-77
2021/08/07 01:41:42;;;;;;;2.50;1.10;;;17.30;99.90;;;;;;6245901;23;20176;-77
2021/08/07 01:44:09;;;;;;;2.43;0.80;;;17.30;99.90;;;;;;6245454;23;20217;-77
2021/08/07 01:46:44;;;;;;;3.00;1.00;;;17.40;99.90;;;;;;6246305;23;20179;-77
2021/08/07 01:49:14;;;;;;;4.83;1.20;;;17.30;99.90;;;;;;6245527;23;20195;-77
2021/08/07 01:51:44;;;;;;;1.87;0.87;;;17.30;99.90;;;;;;6245384;23;20183;-77
2021/08/07 01:54:12;;;;;;;1.43;0.70;;;17.30;99.90;;;;;;6245342;23;20182;-77
2021/08/07 01:56:44;;;;;;;1.67;1.23;;;17.30;99.90;;;;;;6245520;23;20183;-77
2021/08/07 01:59:14;;;;;;;1.67;0.77;;;17.20;99.90;;;;;;6245383;23;20229;-76
2021/08/07 02:01:47;;;;;;;2.90;0.80;;;17.20;99.90;;;;;;6245612;23;20203;-76
2021/08/07 02:04:15;;;;;;;1.00;0.60;;;17.30;99.90;;;;;;6244865;23;20211;-77
2021/08/07 02:06:44;;;;;;;4.93;1.00;;;17.40;99.90;;;;;;6245246;23;20186;-77
2021/08/07 02:09:11;;;;;;;2.93;0.70;;;17.30;99.90;;;;;;6245218;23;20195;-77
2021/08/07 02:11:40;;;;;;;2.20;0.73;;;17.30;99.90;;;;;;6246121;23;20492;-77
2021/08/07 02:14:08;;;;;;;1.70;0.70;;;17.30;99.90;;;;;;6245684;23;20179;-77
2021/08/07 02:16:37;;;;;;;1.17;0.70;;;17.20;99.90;;;;;;6245887;23;20183;-77
2021/08/07 02:19:06;;;;;;;1.23;0.80;;;17.30;99.90;;;;;;6245327;23;20203;-77
2021/08/07 02:21:33;;;;;;;2.67;1.00;;;17.20;99.90;;;;;;6245811;23;20176;-77
2021/08/07 02:24:01;;;;;;;2.70;0.90;;;17.30;99.90;;;;;;6244713;23;20230;-77
2021/08/07 02:26:29;;;;;;;1.77;0.90;;;17.30;99.90;;;;;;6245842;23;20499;-77
2021/08/07 02:28:56;;;;;;;3.27;0.90;;;17.40;99.90;;;;;;6245143;23;20200;-77
2021/08/07 02:31:23;;;;;;;1.17;0.80;;;17.40;99.90;;;;;;6245774;23;20179;-77
2021/08/07 02:33:51;;;;;;;3.13;1.10;;;17.30;99.90;;;;;;6244872;23;20183;-76
2021/08/07 02:36:20;;;;;;;3.23;0.90;;;17.30;99.90;;;;;;6245161;23;20496;-77
2021/08/07 02:38:47;;;;;;;1.83;1.10;;;17.40;99.90;;;;;;6244990;23;20202;-77
2021/08/07 02:41:14;;;;;;;2.37;0.90;;;17.30;99.90;;;;;;6245898;23;20182;-77
2021/08/07 02:43:42;;;;;;;1.43;0.73;;;17.20;99.90;;;;;;6245641;23;20211;-77
2021/08/07 02:46:09;;;;;;;3.17;1.17;;;17.20;99.90;;;;;;6245497;23;20175;-77
2021/08/07 02:48:37;;;;;;;2.47;1.00;;;17.20;99.90;;;;;;6245778;23;20674;-77
2021/08/07 02:51:04;;;;;;;4.13;1.10;;;17.10;99.90;;;;;;6247168;23;20494;-76
2021/08/07 02:53:33;;;;;;;2.37;1.17;;;16.90;99.90;;;;;;6246751;23;20186;-77
2021/08/07 02:56:00;;;;;;;2.23;1.07;;;16.90;99.90;;;;;;6246668;23;20176;-77
2021/08/07 02:58:27;;;;;;;1.83;0.80;;;16.80;99.90;;;;;;6247222;23;20196;-76
2021/08/07 03:00:54;;;;;;;2.37;0.90;;;16.80;99.90;;;;;;6247307;23;20198;-76
2021/08/07 03:03:20;;;;;;;4.07;1.00;;;16.80;99.90;;;;;;6247138;23;20199;-77
2021/08/07 03:05:47;;;;;;;3.40;1.17;;;16.80;99.90;;;;;;6246940;23;20182;-76
2021/08/07 03:08:14;;;;;;;1.90;0.70;;;16.70;99.90;;;;;;6246894;23;20202;-77
2021/08/07 03:10:42;;;;;;;1.73;1.07;;;16.60;99.90;;;;;;6247108;23;20175;-77
2021/08/07 03:13:09;;;;;;;1.10;1.00;;;16.50;99.90;;;;;;6247077;23;20179;-77
2021/08/07 03:15:36;;;;;;;3.00;1.07;;;16.50;99.90;;;;;;6246540;23;20179;-77
2021/08/07 03:18:04;;;;;;;1.60;0.87;;;16.50;99.90;;;;;;6247403;23;20206;-77
2021/08/07 03:20:34;;;;;;;2.80;0.97;;;16.40;99.90;;;;;;6247128;23;20226;-77
2021/08/07 03:23:02;;;;;;;2.60;1.00;;;16.50;99.90;;;;;;6246614;23;20635;-77
2021/08/07 03:25:29;;;;;;;2.97;1.13;;;16.50;99.90;;;;;;6246846;23;20629;-77
2021/08/07 03:27:58;;;;;;;1.17;0.97;;;16.50;99.90;;;;;;6246966;23;20175;-76
2021/08/07 03:30:25;;;;;;;4.73;1.03;;;16.60;99.90;;;;;;6246282;23;20186;-77
2021/08/07 03:32:52;;;;;;;1.63;1.07;;;16.60;99.90;;;;;;6246320;23;20182;-76
2021/08/07 03:35:19;;;;;;;3.73;1.00;;;16.60;99.90;;;;;;6246508;23;20175;-77
2021/08/07 03:37:46;;;;;;;2.07;1.07;;;16.60;99.90;;;;;;6246735;23;20176;-76
2021/08/07 03:40:14;;;;;;;1.73;1.00;;;16.60;99.90;;;;;;6246750;23;20206;-77
2021/08/07 03:42:41;;;;;;;3.07;1.13;;;16.60;99.90;;;;;;6247285;23;20504;-77
2021/08/07 03:45:11;;;;;;;3.13;1.10;;;16.50;99.90;;;;;;6246888;23;20203;-77
2021/08/07 03:47:45;;;;;;;2.23;1.03;;;16.50;99.90;;;;;;6246805;23;20182;-77
2021/08/07 03:50:13;;;;;;;1.50;0.80;;;16.60;99.90;;;;;;6246674;23;20207;-77
2021/08/07 03:52:40;;;;;;;2.13;0.90;;;16.60;99.90;;;;;;6246229;23;20183;-77
2021/08/07 03:55:07;;;;;;;1.53;0.87;;;16.50;99.90;;;;;;6246762;23;20238;-77
2021/08/07 03:57:47;;;;;;;1.63;1.00;;;16.60;99.90;;;;;;6246874;23;20176;-77
2021/08/07 04:00:16;;;;;;;2.70;0.90;;;16.60;99.90;;;;;;6245964;23;20199;-77
2021/08/07 04:02:43;;;;;;;2.63;1.00;;;16.60;99.90;;;;;;6247041;23;20179;-77
2021/08/07 04:05:11;;;;;;;3.80;0.90;;;16.70;99.90;;;;;;6246047;23;20522;-77
2021/08/07 04:07:38;;;;;;;3.03;0.90;;;16.70;99.90;;;;;;6246133;23;20175;-77
2021/08/07 04:10:05;;;;;;;2.37;1.03;;;16.70;99.90;;;;;;6246166;23;20199;-77
2021/08/07 04:12:32;;;;;;;5.90;0.83;;;16.70;99.90;;;;;;6246697;23;20182;-77
2021/08/07 04:14:59;;;;;;;1.37;0.90;;;16.70;99.90;;;;;;6245921;23;20176;-77
2021/08/07 04:17:27;;;;;;;4.40;0.80;;;16.70;99.90;;;;;;6245609;23;20527;-77
2021/08/07 04:19:54;;;;;;;3.87;0.80;;;16.70;99.90;;;;;;6246685;23;20196;-77
2021/08/07 04:22:21;;;;;;;1.77;0.83;;;16.70;99.90;;;;;;6246479;23;20175;-77
2021/08/07 04:24:48;;;;;;;1.23;0.80;;;16.70;99.90;;;;;;6246090;23;20214;-77
2021/08/07 04:27:14;;;;;;;0.90;0.80;;;16.50;99.90;;;;;;6246456;23;20176;-77
2021/08/07 04:29:41;;;;;;;0.87;0.63;;;16.30;99.90;;;;;;6246205;23;20206;-77
2021/08/07 04:32:08;;;;;;;3.00;0.90;;;16.10;99.90;;;;;;6245601;23;20639;-77
2021/08/07 04:34:36;;;;;;;2.00;0.87;;;16.00;99.90;;;;;;6245750;23;20631;-77
2021/08/07 04:37:03;;;;;;;2.30;1.20;;;15.90;99.90;;;;;;6246246;23;20186;-77
2021/08/07 04:39:30;;;;;;;2.67;1.20;;;15.80;99.90;;;;;;6245851;23;20195;-77
2021/08/07 04:41:57;;;;;;;2.57;0.90;;;15.90;99.90;;;;;;6245875;23;20176;-76
2021/08/07 04:44:24;;;;;;;1.80;1.30;;;15.80;99.90;;;;;;6245730;23;20213;-77
2021/08/07 04:46:50;;;;;;;0.77;0.57;;;15.90;99.90;;;;;;6245590;23;20175;-76
2021/08/07 04:49:17;;;;;;;2.30;1.00;;;16.00;99.90;;;;;;6245635;23;20199;-76
2021/08/07 04:51:45;;;;;;;1.40;0.70;;;16.20;99.90;;;;;;6245914;23;20179;-76
2021/08/07 04:54:12;;;;;;;1.70;0.93;;;16.20;99.90;;;;;;6246329;23;20191;-76
2021/08/07 04:56:39;;;;;;;2.90;0.83;;;16.40;99.90;;;;;;6246326;23;20182;-76
2021/08/07 04:59:06;;;;;;;3.73;1.17;;;16.60;99.90;;;;;;6245685;23;20206;-77
2021/08/07 05:01:33;;;;;;;2.97;0.87;;;17.00;99.90;;;;;;6245825;23;20647;-76
2021/08/07 05:04:00;;;;;;;1.23;0.90;;;17.40;99.90;;;;;;6245741;23;20203;-76
2021/08/07 05:06:27;;;;;;;2.90;0.83;;;17.40;99.90;;;;;;6245850;23;20185;-76
2021/08/07 05:08:55;;;;;;;4.70;0.80;;;17.50;99.90;;;;;;6245667;23;20278;-76
2021/08/07 05:11:22;;;;;;;2.77;0.83;;;17.40;99.90;;;;;;6245437;23;20176;-76
2021/08/07 05:13:48;;;;;;;1.87;0.57;;;17.30;99.90;;;;;;6245810;23;20188;-76
2021/08/07 05:16:15;;;;;;;1.30;0.60;;;17.40;99.90;;;;;;6246021;23;20180;-76
2021/08/07 05:18:42;;;;;;;1.20;0.70;;;17.30;99.90;;;;;;6245853;23;20210;-76
2021/08/07 05:21:09;;;;;;;1.83;0.60;;;17.30;99.90;;;;;;6248122;23;20182;-76
2021/08/07 05:23:35;;;;;;;1.00;0.80;;;17.20;99.90;;;;;;6246371;23;21084;-76
2021/08/07 05:26:04;;;;;;;4.33;0.70;;;17.20;99.90;;;;;;6246495;23;20176;-76
2021/08/07 05:28:30;;;;;;;2.70;0.60;;;17.10;99.90;;;;;;6246047;23;20255;-76
2021/08/07 05:30:57;;;;;;;1.50;0.67;;;17.10;99.90;;;;;;6246130;23;20183;-77
2021/08/07 05:33:24;;;;;;;1.40;0.50;;;17.00;99.90;;;;;;6246154;23;20201;-76
2021/08/07 05:35:51;;;;;;;0.70;0.53;;;17.30;99.90;;;;;;6245911;23;20227;-76
2021/08/07 05:38:18;;;;;;;1.77;0.80;;;18.00;99.90;;;;;;6245320;23;20601;-76
2021/08/07 05:40:45;;;;;;;0.73;0.60;;;18.80;99.90;;;;;;6245917;23;20210;-76
2021/08/07 05:43:13;;;;;;;2.97;0.65;;;19.70;99.90;;;;;;6246114;23;20181;-76
2021/08/07 05:45:39;;;;;;;2.20;0.50;;;20.30;99.90;;;;;;6245995;23;20289;-77
2021/08/07 05:48:06;;;;;;;3.35;0.70;;;20.80;99.90;;;;;;6245386;23;20182;-77
2021/08/07 05:50:34;;;;;;;1.45;0.60;;;21.40;99.90;;;;;;6244939;23;20175;-77
2021/08/07 05:53:01;;;;;;;1.85;0.60;;;21.80;99.90;;;;;;6245331;23;20250;-77
2021/08/07 05:55:28;;;;;;;2.75;0.60;;;22.10;99.90;;;;;;6245683;23;20185;-77
2021/08/07 05:57:55;;;;;;;1.38;0.55;;;22.60;99.90;;;;;;6245700;23;20182;-78
2021/08/07 06:00:23;;;;;;;0.90;0.70;;;23.10;99.90;;;;;;6245875;23;20175;-78
2021/08/07 06:02:50;;;;;;;1.50;0.50;;;23.40;99.90;;;;;;6245511;23;20653;-78
2021/08/07 06:05:17;;;;;;;2.90;0.40;;;23.40;99.90;;;;;;6245217;23;20204;-78
2021/08/07 06:07:43;;;;;;;1.80;0.50;;;23.80;99.90;;;;;;6245565;23;20178;-78
2021/08/07 06:10:10;;;;;;;1.42;0.60;;;24.00;99.90;;;;;;6245629;23;20218;-77
2021/08/07 06:12:37;;;;;;;1.58;0.40;;;24.40;99.90;;;;;;6245606;23;20176;-77
2021/08/07 06:15:05;;;;;;;0.85;0.40;;;24.20;99.90;;;;;;6245246;23;20666;-78
2021/08/07 06:17:33;;;;;;;1.48;0.43;;;24.40;99.90;;;;;;6244672;23;20266;-78
2021/08/07 06:19:59;;;;;;;0.93;0.50;;;24.90;99.90;;;;;;6244582;23;20195;-78
2021/08/07 06:22:26;;;;;;;1.20;0.60;;;25.00;99.90;;;;;;6245495;23;20176;-77
2021/08/07 06:24:53;;;;;;;2.05;0.57;;;24.90;99.90;;;;;;6247553;23;20213;-76
2021/08/07 06:27:20;;;;;;;1.80;0.50;;;24.90;99.90;;;;;;6247474;23;20186;-77
2021/08/07 06:29:47;;;;;;;1.02;0.40;;;24.20;99.90;;;;;;6246175;23;20202;-78
2021/08/07 06:32:13;;;;;;;3.35;0.35;;;24.00;99.90;;;;;;6246911;23;20176;-78
2021/08/07 06:34:41;;;;;;;2.33;0.50;;;23.80;99.90;;;;;;6247268;23;20190;-78
2021/08/07 06:37:09;;;;;;;1.35;0.57;;;23.60;99.90;;;;;;6247884;23;20182;-78
2021/08/07 06:39:36;;;;;;;1.52;0.60;;;23.70;99.90;;;;;;6247594;23;20195;-78
2021/08/07 06:42:03;;;;;;;1.40;0.45;;;23.70;99.90;;;;;;6247159;23;20182;-79
2021/08/07 06:44:30;;;;;;;1.77;0.50;;;24.00;99.90;;;;;;6247183;23;20203;-78
2021/08/07 06:46:56;;;;;;;1.65;0.70;;;24.50;99.90;;;;;;6247734;23;20176;-78
2021/08/07 06:49:23;;;;;;;3.95;0.60;;;24.90;99.90;;;;;;6247413;23;20195;-78
2021/08/07 06:51:52;;;;;;;3.05;0.50;;;25.10;99.90;;;;;;6247662;23;20183;-78
2021/08/07 06:54:19;;;;;;;2.03;0.43;;;25.20;99.90;;;;;;6247212;23;20183;-78
2021/08/07 06:56:48;;;;;;;2.78;0.70;;;24.70;99.90;;;;;;6247120;23;20180;-78
2021/08/07 06:59:15;;;;;;;2.88;0.40;;;25.00;99.90;;;;;;6247237;23;20199;-78
2021/08/07 07:01:44;;;;;;;2.45;0.38;;;25.00;99.90;;;;;;6247189;23;20639;-78
2021/08/07 07:04:10;;;;;;;2.60;0.50;;;25.10;99.90;;;;;;6247250;23;20266;-79
2021/08/07 07:06:37;;;;;;;1.10;0.45;;;25.40;99.90;;;;;;6247555;23;20175;-78
2021/08/07 07:09:05;;;;;;;2.28;0.75;;;25.70;99.90;;;;;;6247152;23;20195;-79
2021/08/07 07:11:32;;;;;;;2.42;0.70;;;25.80;99.90;;;;;;6246817;23;20184;-78
2021/08/07 07:13:59;;;;;;;3.17;0.40;;;26.40;99.90;;;;;;6246789;23;20180;-79
2021/08/07 07:16:26;;;;;;;2.83;0.50;;;26.80;99.90;;;;;;6246975;23;20511;-77
2021/08/07 07:18:52;;;;;;;2.58;0.52;;;26.80;99.90;;;;;;6246234;23;20267;-77
2021/08/07 07:21:19;;;;;;;2.03;0.70;;;26.80;99.90;;;;;;6246556;23;20176;-77
2021/08/07 07:23:46;;;;;;;1.45;0.45;;;27.20;99.90;;;;;;6245630;23;20689;-78
2021/08/07 07:26:14;;;;;;;0.73;0.38;;;27.40;99.90;;;;;;6247137;23;20211;-78
2021/08/07 07:28:41;;;;;;;0.90;0.57;;;27.20;99.90;;;;;;6246847;23;20196;-78
2021/08/07 07:31:08;;;;;;;2.28;0.65;;;27.10;99.90;;;;;;6246529;23;20635;-78
2021/08/07 07:33:34;;;;;;;0.68;0.30;;;26.80;99.90;;;;;;6246641;23;20715;-78
2021/08/07 07:36:01;;;;;;;3.65;0.68;;;26.70;99.90;;;;;;6246744;23;20179;-77
2021/08/07 07:38:30;;;;;;;3.53;0.82;;;26.00;99.90;;;;;;6246321;23;20207;-78
2021/08/07 07:40:57;;;;;;;1.55;0.40;;;25.70;99.90;;;;;;6246662;23;20179;-77
2021/08/07 07:43:26;;;;;;;0.93;0.40;;;26.00;99.90;;;;;;6246641;23;20627;-78
2021/08/07 07:45:53;;;;;;;4.07;0.70;;;26.30;99.90;;;;;;6246736;23;20203;-78
2021/08/07 07:48:19;;;;;;;1.13;0.40;;;26.70;99.90;;;;;;6246475;23;20202;-78
2021/08/07 07:50:46;;;;;;;0.80;0.40;;;26.80;99.90;;;;;;6246568;23;20179;-78
2021/08/07 07:53:13;;;;;;;2.35;0.50;;;27.10;99.90;;;;;;6246225;23;20179;-78
2021/08/07 07:55:41;;;;;;;1.40;0.60;;;27.40;99.90;;;;;;6246749;23;20183;-79
2021/08/07 07:58:08;;;;;;;2.72;0.50;;;27.70;99.90;;;;;;6245817;23;20547;-78
2021/08/07 08:00:36;;;;;;;2.88;0.63;;;26.90;99.90;;;;;;6245937;23;20175;-77
2021/08/07 08:03:04;;;;;;;1.13;0.50;;;26.40;99.90;;;;;;6246379;23;20176;-79
2021/08/07 08:05:31;;;;;;;2.22;0.43;;;25.60;99.90;;;;;;6246807;23;20207;-79
2021/08/07 08:07:58;;;;;;;0.77;0.47;;;25.80;99.90;;;;;;6246979;23;20198;-78
2021/08/07 08:10:24;;;;;;;1.63;0.52;;;25.80;99.90;;;;;;6246865;23;20176;-78
2021/08/07 08:12:51;;;;;;;2.83;0.57;;;26.20;99.90;;;;;;6246509;23;20175;-78
2021/08/07 08:15:18;;;;;;;4.10;0.50;;;25.80;99.90;;;;;;6246115;23;20619;-77
2021/08/07 08:17:47;;;;;;;2.42;0.40;;;26.40;99.90;;;;;;6246498;23;20238;-77
2021/08/07 08:20:14;;;;;;;3.47;0.50;;;26.00;99.90;;;;;;6246728;23;20202;-78
2021/08/07 08:22:41;;;;;;;3.00;0.70;;;26.50;99.90;;;;;;6246930;23;20175;-79
2021/08/07 08:25:11;;;;;;;0.80;0.50;;;27.10;99.90;;;;;;6245410;23;20206;-78
2021/08/07 08:27:38;;;;;;;4.85;0.82;;;27.30;99.90;;;;;;6246210;23;20180;-78
2021/08/07 08:30:06;;;;;;;3.42;0.43;;;27.90;99.90;;;;;;6246582;23;20199;-78
2021/08/07 08:32:34;;;;;;;2.88;0.80;;;27.70;99.90;;;;;;6246488;23;20179;-78
2021/08/07 08:35:02;;;;;;;2.55;0.70;;;27.90;99.90;;;;;;6246485;23;20190;-79
2021/08/07 08:37:30;;;;;;;1.55;0.40;;;27.60;99.90;;;;;;6246397;23;20468;-79
2021/08/07 08:39:57;;;;;;;1.40;0.57;;;27.80;99.90;;;;;;6245722;23;20697;-79
2021/08/07 08:42:25;;;;;;;1.25;0.40;;;27.30;99.90;;;;;;6246388;23;20199;-78
2021/08/07 08:44:52;;;;;;;3.40;0.60;;;26.50;99.90;;;;;;6246380;23;20198;-78
2021/08/07 08:47:20;;;;;;;3.72;0.60;;;25.40;99.90;;;;;;6246002;23;20201;-79
2021/08/07 08:49:47;;;;;;;0.98;0.40;;;24.60;99.90;;;;;;6246439;23;20206;-79
2021/08/07 08:52:16;;;;;;;2.92;0.70;;;24.60;99.90;;;;;;6245942;23;20180;-75
2021/08/07 08:54:43;;;;;;;1.13;0.60;;;24.20;99.90;;;;;;6245811;23;20176;-79
2021/08/07 08:57:10;;;;;;;3.92;0.47;;;24.10;99.90;;;;;;6246250;23;20180;-80
2021/08/07 08:59:37;;;;;;;1.23;0.40;;;23.60;99.90;;;;;;6246323;23;20206;-78
2021/08/07 09:02:04;;;;;;;2.45;0.50;;;23.70;99.90;;;;;;6246497;23;20175;-80
2021/08/07 09:04:31;;;;;;;1.15;0.40;;;24.20;99.90;;;;;;6246259;23;20180;-78
2021/08/07 09:06:57;;;;;;;1.42;0.45;;;25.00;99.90;;;;;;6245536;23;20207;-79
2021/08/07 09:09:37;;;;;;;2.00;0.68;;;24.80;99.90;;;;;;6245690;23;20199;-78
2021/08/07 09:12:05;;;;;;;2.08;0.45;;;24.90;99.90;;;;;;6245849;23;20180;-80
2021/08/07 09:14:34;;;;;;;1.05;0.57;;;25.10;99.90;;;;;;6245356;23;20495;-80
2021/08/07 09:17:14;;;;;;;0.55;0.30;;;25.30;99.90;;;;;;6245967;23;20666;-79
2021/08/07 09:19:57;;;;;;;4.35;0.80;;;24.70;99.90;;;;;;6246188;23;20314;-80
2021/08/07 09:22:25;;;;;;;2.55;0.60;;;25.20;99.90;;;;;;6246117;23;20176;-79
2021/08/07 09:25:08;;;;;;;1.95;0.50;;;24.90;99.90;;;;;;6246074;23;20175;-79
2021/08/07 09:27:36;;;;;;;1.13;0.50;;;24.70;99.90;;;;;;6245934;23;20218;-82
2021/08/07 09:30:07;;;;;;;1.75;0.52;;;24.80;99.90;;;;;;6246249;23;20507;-80
2021/08/07 09:32:47;;;;;;;2.30;0.65;;;24.90;99.90;;;;;;6246087;23;20182;-81
2021/08/07 09:35:16;;;;;;;2.35;0.40;;;25.60;99.90;;;;;;6245816;23;20198;-81
2021/08/07 09:37:44;;;;;;;1.85;0.60;;;25.50;99.90;;;;;;6246010;23;20183;-79
2021/08/07 09:40:14;;;;;;;1.02;0.30;;;24.90;99.90;;;;;;6245346;23;20199;-80
2021/08/07 09:42:51;;;;;;;0.73;0.40;;;24.80;99.90;;;;;;6245757;23;20179;-82
2021/08/07 09:45:22;;;;;;;1.67;0.40;;;25.00;99.90;;;;;;6245195;23;20233;-81
2021/08/07 09:47:57;;;;;;;1.58;0.40;;;25.20;99.90;;;;;;6245865;23;20175;-82
2021/08/07 09:50:26;;;;;;;1.10;0.60;;;24.90;99.90;;;;;;6246115;23;20175;-84
2021/08/07 09:52:53;;;;;;;2.47;0.50;;;24.90;99.90;;;;;;6245632;23;20630;-78
2021/08/07 09:55:22;;;;;;;1.80;0.60;;;24.80;99.90;;;;;;6245088;23;20183;-78
2021/08/07 09:58:01;;;;;;;1.73;0.55;;;24.60;99.90;;;;;;6246309;23;20179;-78
2021/08/07 10:00:38;;;;;;;1.15;0.35;;;24.30;99.90;;;;;;6247504;23;20627;-77
2021/08/07 10:03:18;;;;;;;2.58;0.43;;;24.50;99.90;;;;;;6248081;23;20197;-77
2021/08/07 10:05:46;;;;;;;1.20;0.40;;;24.20;99.90;;;;;;6247745;23;20203;-78
2021/08/07 10:08:13;;;;;;;2.70;0.40;;;23.70;99.90;;;;;;6246985;23;20696;-79
2021/08/07 10:10:42;;;;;;;1.75;0.55;;;23.60;99.90;;;;;;6246602;23;20189;-79
2021/08/07 10:13:11;;;;;;;2.75;0.60;;;23.70;99.90;;;;;;6247985;23;20175;-78
2021/08/07 10:15:40;;;;;;;1.73;0.77;;;23.90;99.90;;;;;;6246873;23;20186;-80
2021/08/07 10:18:08;;;;;;;1.13;0.28;;;24.00;99.90;;;;;;6246681;23;20183;-79
2021/08/07 10:20:35;;;;;;;1.17;0.40;;;24.00;99.90;;;;;;6247021;23;20187;-79
2021/08/07 10:23:03;;;;;;;1.23;0.40;;;23.80;99.90;;;;;;6247452;23;20237;-77
2021/08/07 10:25:30;;;;;;;2.55;0.45;;;23.50;99.90;;;;;;6246751;23;20186;-79
2021/08/07 10:28:00;;;;;;;0.77;0.30;;;23.40;99.90;;;;;;6247318;23;20186;-77
2021/08/07 10:30:30;;;;;;;4.15;0.35;;;23.10;99.90;;;;;;6247538;23;20182;-79
2021/08/07 10:32:58;;;;;;;0.60;0.40;;;22.90;99.90;;;;;;6247023;23;20182;-77
2021/08/07 10:35:26;;;;;;;2.17;0.40;;;22.90;99.90;;;;;;6247173;23;20183;-78
2021/08/07 10:37:56;;;;;;;1.52;0.60;;;23.10;99.90;;;;;;6246258;23;20179;-79
2021/08/07 10:40:23;;;;;;;3.05;0.60;;;23.00;99.90;;;;;;6246240;23;20552;-79
2021/08/07 10:42:53;;;;;;;0.98;0.30;;;22.70;99.90;;;;;;6247273;23;20314;-77
2021/08/07 10:45:23;;;;;;;1.38;0.63;;;22.60;99.90;;;;;;6246834;23;20186;-79
2021/08/07 10:47:51;;;;;;;1.20;0.63;;;22.20;99.90;;;;;;6247441;23;20653;-78
2021/08/07 10:50:39;;;;;;;1.05;0.52;;;21.80;99.90;;;;;;6247186;23;20235;-79
2021/08/07 10:53:26;;;;;;;2.28;0.50;;;21.90;99.90;;;;;;6247106;23;20513;-80
2021/08/07 10:55:55;;;;;;;3.40;0.70;;;22.20;99.90;;;;;;6247374;23;20183;-79
2021/08/07 10:58:36;;;;;;;1.15;0.50;;;22.30;99.90;;;;;;6247257;23;20202;-80
2021/08/07 11:01:32;;;;;;;0.65;0.38;;;22.40;99.90;;;;;;6247257;23;20182;-77
2021/08/07 11:04:09;;;;;;;0.73;0.30;;;22.50;99.90;;;;;;6247544;23;20210;-77
2021/08/07 11:07:10;;;;;;;3.55;0.70;;;22.60;99.90;;;;;;6247410;23;20531;-76
2021/08/07 11:09:39;;;;;;;4.22;0.63;;;22.50;99.90;;;;;;6246787;23;20551;-80
2021/08/07 11:12:27;;;;;;;1.52;0.63;;;22.40;99.90;;;;;;6246947;23;20247;-79
2021/08/07 11:14:56;;;;;;;3.03;0.40;;;22.60;99.90;;;;;;6246931;23;20179;-79
2021/08/07 11:17:42;;;;;;;1.08;0.50;;;22.70;99.90;;;;;;6246951;23;20187;-79
2021/08/07 11:20:17;;;;;;;2.72;0.60;;;22.90;99.90;;;;;;6246862;23;20200;-78
2021/08/07 11:23:16;;;;;;;3.67;0.52;;;23.20;99.90;;;;;;6247365;23;20175;-79
2021/08/07 11:26:05;;;;;;;1.75;0.40;;;23.30;99.90;;;;;;6247073;23;20254;-77
2021/08/07 11:28:33;;;;;;;1.50;0.55;;;23.30;99.90;;;;;;6246437;23;20543;-80
2021/08/07 11:31:15;;;;;;;1.73;0.60;;;23.50;99.90;;;;;;6246892;23;20176;-81
2021/08/07 11:33:43;;;;;;;2.15;0.40;;;23.70;99.90;;;;;;6246734;23;20179;-79
2021/08/07 11:36:13;;;;;;;1.70;0.40;;;23.80;99.90;;;;;;6247036;23;20186;-79
2021/08/07 11:39:03;;;;;;;1.08;0.43;;;23.70;99.90;;;;;;6246476;23;20199;-79
2021/08/07 11:41:37;;;;;;;2.65;0.50;;;23.30;99.90;;;;;;6247086;23;20182;-79
2021/08/07 11:44:04;;;;;;;0.73;0.30;;;23.20;99.90;;;;;;6246856;23;20203;-79
2021/08/07 11:46:37;;;;;;;0.63;0.30;;;22.90;99.90;;;;;;6246571;23;20211;-79
2021/08/07 11:49:07;;;;;;;1.85;0.50;;;22.90;99.90;;;;;;6246887;23;20200;-78
2021/08/07 11:51:36;;;;;;;2.30;0.30;;;23.20;99.90;;;;;;6246908;23;20176;-79
2021/08/07 11:54:03;;;;;;;2.05;0.40;;;23.50;99.90;;;;;;6246737;23;20198;-79
2021/08/07 11:56:35;;;;;;;1.17;0.57;;;23.60;99.90;;;;;;6246799;23;20221;-78
2021/08/07 11:59:02;;;;;;;1.58;0.40;;;23.80;99.90;;;;;;6246251;23;20603;-79
2021/08/07 12:01:30;;;;;;;1.58;0.50;;;23.70;99.90;;;;;;6246755;23;20203;-77
2021/08/07 12:03:57;;;;;;;1.42;0.50;;;23.90;99.90;;;;;;6246916;23;20175;-78
2021/08/07 12:06:30;;;;;;;0.73;0.32;;;23.70;99.90;;;;;;6246172;23;20708;-78
2021/08/07 12:08:58;;;;;;;0.75;0.55;;;23.50;99.90;;;;;;6246639;23;20202;-79
2021/08/07 12:11:25;;;;;;;1.45;0.52;;;23.50;99.90;;;;;;6246252;23;20186;-82
2021/08/07 12:13:54;;;;;;;3.13;0.50;;;23.50;99.90;;;;;;6248014;23;20180;-78
2021/08/07 12:16:23;;;;;;;3.58;0.60;;;23.30;99.90;;;;;;6247332;23;20186;-79
2021/08/07 12:18:51;;;;;;;0.82;0.40;;;23.10;99.90;;;;;;6246602;23;20207;-79
2021/08/07 12:21:33;;;;;;;1.80;0.50;;;23.00;99.90;;;;;;6246252;23;20175;-79
2021/08/07 12:24:03;;;;;;;1.17;0.55;;;23.00;99.90;;;;;;6246854;23;20190;-78
2021/08/07 12:26:31;;;;;;;2.13;0.50;;;23.20;99.90;;;;;;6246106;23;20679;-78
2021/08/07 12:29:01;;;;;;;1.02;0.50;;;23.40;99.90;;;;;;6246591;23;20201;-77
2021/08/07 12:31:45;;;;;;;0.90;0.38;;;23.80;99.90;;;;;;6246585;23;20499;-79
2021/08/07 12:34:17;;;;;;;3.40;1.00;;;23.80;99.90;;;;;;6246229;23;20197;-81
2021/08/07 12:36:56;;;;;;;0.77;0.38;;;23.50;99.90;;;;;;6246451;23;20184;-80
2021/08/07 12:39:23;;;;;;;1.40;0.32;;;23.50;99.90;;;;;;6246439;23;20196;-79
2021/08/07 12:41:50;;;;;;;3.65;0.57;;;24.00;99.90;;;;;;6245983;23;20567;-80
2021/08/07 12:44:24;;;;;;;2.50;0.60;;;24.00;99.90;;;;;;6246102;23;20197;-81
2021/08/07 12:46:54;;;;;;;1.55;0.40;;;23.90;99.90;;;;;;6246220;23;20207;-79
2021/08/07 12:49:48;;;;;;;1.73;0.38;;;23.80;99.90;;;;;;6246148;23;20199;-79
2021/08/07 12:52:18;;;;;;;0.57;0.20;;;23.70;99.90;;;;;;6158082;23;20186;-79
2021/08/07 12:55:03;;;;;;;1.55;0.35;;;23.70;99.90;;;;;;6246411;23;20274;-80
2021/08/07 12:57:30;;;;;;;1.10;0.40;;;23.60;99.90;;;;;;6246134;23;20180;-83
2021/08/07 12:59:57;;;;;;;0.82;0.60;;;23.50;99.90;;;;;;6245696;23;20697;-78